Time;durP1;ratioP1;P1;durP2;ratioP2;P2;SDS_P1;SDS_P2;PMS_P1;PMS_P2;Temp;Humidity;BMP_temperature;BMP_pressure;BME280_temperature;BME280_humidity;BME280_pressure;Samples;Min_cycle;Max_cycle;Signal;HPM_P1;HPM_P2
2021/10/28 00:12:27;;;;;;;24.88;14.80;;;;;;;;;;4985353;28;20033;-66
2021/10/28 00:14:56;;;;;;;38.65;15.65;;;;;;;;;;4991665;28;20088;-66
2021/10/28 00:20:08;;;;;;;24.80;14.05;;;;;;;;;;4984103;28;20084;-66
2021/10/28 00:22:35;;;;;;;23.25;14.32;;;;;;;;;;4993616;28;20033;-66
2021/10/28 00:25:01;;;;;;;25.05;14.57;;;;;;;;;;4992901;28;20029;-65
2021/10/28 00:27:27;;;;;;;19.80;12.60;;;;;;;;;;4992748;28;20056;-66
2021/10/28 00:29:53;;;;;;;22.08;14.10;;;;;;;;;;4990072;28;20063;-65
2021/10/28 00:32:19;;;;;;;20.70;13.70;;;;;;;;;;4992964;28;20066;-65
2021/10/28 00:34:45;;;;;;;24.50;14.63;;;;;;;;;;4992883;28;20409;-65
2021/10/28 00:37:12;;;;;;;25.02;13.73;;;;;;;;;;4992208;28;20405;-65
2021/10/28 00:39:39;;;;;;;23.95;13.63;;;;;;;;;;4990295;28;20452;-66
2021/10/28 00:42:05;;;;;;;20.15;13.05;;;;;;;;;;4991268;28;20026;-65
2021/10/28 00:44:32;;;;;;;26.38;13.05;;;;;;;;;;4990506;28;20109;-66
2021/10/28 00:46:58;;;;;;;21.65;13.15;;;;;;;;;;4992328;28;20089;-66
2021/10/28 00:49:24;;;;;;;20.48;12.82;;;;;;;;;;4990736;28;20026;-65
2021/10/28 00:51:50;;;;;;;20.85;12.60;;;;;;;;;;4992482;28;20041;-65
2021/10/28 00:54:21;;;;;;;21.17;12.63;;;;;;;;;;4992947;28;20030;-65
2021/10/28 00:56:48;;;;;;;20.45;13.13;;;;;;;;;;4991970;28;20031;-66
2021/10/28 00:59:14;;;;;;;20.15;12.63;;;;;;;;;;4989748;28;20113;-65
2021/10/28 01:01:40;;;;;;;21.45;12.15;;;;;;;;;;4992482;28;20027;-65
2021/10/28 01:04:06;;;;;;;18.80;12.00;;;;;;;;;;4992337;28;20032;-65
2021/10/28 01:06:34;;;;;;;22.08;12.10;;;;;;;;;;4992577;28;20026;-65
2021/10/28 01:09:00;;;;;;;22.55;12.48;;;;;;;;;;4988911;28;20030;-65
2021/10/28 01:11:28;;;;;;;28.45;13.32;;;;;;;;;;4991063;28;20030;-65
2021/10/28 01:13:56;;;;;;;22.55;13.95;;;;;;;;;;4992216;28;20540;-66
2021/10/28 01:16:22;;;;;;;22.08;12.70;;;;;;;;;;4992038;28;20034;-65
2021/10/28 01:18:48;;;;;;;24.20;14.77;;;;;;;;;;4989771;28;20029;-65
2021/10/28 01:21:14;;;;;;;22.60;12.85;;;;;;;;;;4992415;28;20022;-65
2021/10/28 01:23:41;;;;;;;24.83;13.73;;;;;;;;;;4992173;28;20019;-65
2021/10/28 01:26:11;;;;;;;21.52;13.07;;;;;;;;;;4991624;28;20048;-65
2021/10/28 01:28:38;;;;;;;22.88;13.88;;;;;;;;;;4989528;28;20117;-66
2021/10/28 01:31:06;;;;;;;23.77;13.80;;;;;;;;;;4984176;28;20046;-65
2021/10/28 01:33:32;;;;;;;23.10;14.88;;;;;;;;;;4992331;28;20477;-65
2021/10/28 01:35:58;;;;;;;26.30;13.30;;;;;;;;;;4992085;28;20124;-65
2021/10/28 01:38:25;;;;;;;23.73;14.70;;;;;;;;;;4989403;28;20030;-65
2021/10/28 01:40:54;;;;;;;22.02;13.45;;;;;;;;;;4990312;28;20026;-65
2021/10/28 01:43:20;;;;;;;25.65;14.93;;;;;;;;;;4991354;28;20022;-65
2021/10/28 01:45:46;;;;;;;22.50;13.98;;;;;;;;;;4991140;28;20037;-65
2021/10/28 01:48:13;;;;;;;26.25;14.77;;;;;;;;;;4988834;28;20121;-65
2021/10/28 01:50:41;;;;;;;23.02;13.82;;;;;;;;;;4991491;28;20022;-65
2021/10/28 01:53:07;;;;;;;21.20;14.65;;;;;;;;;;4989597;28;20092;-65
2021/10/28 01:55:33;;;;;;;27.05;16.13;;;;;;;;;;4992421;28;20441;-65
2021/10/28 01:57:59;;;;;;;25.80;15.18;;;;;;;;;;4988179;28;20022;-65
2021/10/28 02:00:25;;;;;;;25.20;16.40;;;;;;;;;;4990769;28;20094;-65
2021/10/28 02:02:51;;;;;;;28.00;16.27;;;;;;;;;;4988728;28;20497;-65
2021/10/28 02:05:19;;;;;;;26.67;15.45;;;;;;;;;;4991373;28;20145;-65
2021/10/28 02:07:46;;;;;;;29.40;16.90;;;;;;;;;;4990094;28;20031;-66
2021/10/28 02:10:12;;;;;;;23.02;15.02;;;;;;;;;;4989234;28;20117;-65
2021/10/28 02:12:39;;;;;;;29.85;16.33;;;;;;;;;;5004902;28;20037;-66
2021/10/28 02:15:06;;;;;;;21.88;14.73;;;;;;;;;;4989766;28;20026;-65
2021/10/28 02:17:32;;;;;;;26.48;16.65;;;;;;;;;;4990549;28;20038;-65
2021/10/28 02:19:58;;;;;;;27.23;15.30;;;;;;;;;;4988094;28;20034;-65
2021/10/28 02:22:25;;;;;;;29.05;16.52;;;;;;;;;;4993396;28;20030;-65
2021/10/28 02:24:51;;;;;;;30.20;16.48;;;;;;;;;;4990686;28;20026;-66
2021/10/28 02:27:17;;;;;;;27.92;16.75;;;;;;;;;;4985071;28;20531;-65
2021/10/28 02:29:44;;;;;;;28.75;15.23;;;;;;;;;;4986506;28;20045;-65
2021/10/28 02:32:10;;;;;;;30.45;15.68;;;;;;;;;;4990685;28;20096;-65
2021/10/28 02:34:37;;;;;;;27.42;15.20;;;;;;;;;;4989423;28;20479;-65
2021/10/28 02:37:03;;;;;;;22.25;14.93;;;;;;;;;;4991276;28;20022;-65
2021/10/28 02:39:29;;;;;;;24.42;15.63;;;;;;;;;;4987108;28;20515;-65
2021/10/28 02:41:56;;;;;;;29.38;16.58;;;;;;;;;;4989770;28;20519;-65
2021/10/28 02:44:22;;;;;;;23.77;15.43;;;;;;;;;;4988925;28;20045;-65
2021/10/28 02:46:48;;;;;;;27.80;16.15;;;;;;;;;;4990238;28;20026;-66
2021/10/28 02:49:15;;;;;;;30.30;15.73;;;;;;;;;;4988287;28;20026;-65
2021/10/28 02:51:46;;;;;;;26.27;17.42;;;;;;;;;;4990253;28;20540;-65
2021/10/28 02:54:12;;;;;;;;;;;;;;;;;;4985643;28;20053;-65
2021/10/28 02:56:38;;;;;;;28.05;16.27;;;;;;;;;;4984090;28;19960;-65
2021/10/28 02:59:04;;;;;;;30.42;15.55;;;;;;;;;;4988152;28;20026;-65
2021/10/28 03:01:30;;;;;;;29.52;16.70;;;;;;;;;;4988344;28;20026;-65
2021/10/28 03:03:56;;;;;;;32.28;17.23;;;;;;;;;;4989769;28;20061;-65
2021/10/28 03:06:22;;;;;;;26.98;17.02;;;;;;;;;;4989746;28;20520;-65
2021/10/28 03:08:50;;;;;;;31.33;16.80;;;;;;;;;;4987627;28;20447;-65
2021/10/28 03:11:16;;;;;;;28.25;17.27;;;;;;;;;;5002064;28;20573;-66
2021/10/28 03:13:44;;;;;;;29.15;15.75;;;;;;;;;;4985999;28;20707;-65
2021/10/28 03:16:24;;;;;;;26.90;16.77;;;;;;;;;;4990250;28;20388;-65
2021/10/28 03:27:11;;;;;;;29.02;16.42;;;;;;;;;;4988887;28;20143;-66
2021/10/28 03:29:37;;;;;;;27.48;16.60;;;;;;;;;;4987511;28;20026;-65
2021/10/28 03:32:03;;;;;;;25.40;14.98;;;;;;;;;;5005240;28;20062;-65
2021/10/28 03:34:29;;;;;;;28.90;15.85;;;;;;;;;;4994027;28;20053;-65
2021/10/28 03:37:31;;;;;;;30.98;17.17;;;;;;;;;;4993291;28;20027;-65
2021/10/28 03:40:16;;;;;;;28.83;16.75;;;;;;;;;;4986701;28;20117;-65
2021/10/28 03:50:47;;;;;;;28.80;18.17;;;;;;;;;;4994519;28;20034;-65
2021/10/28 04:30:20;;;;;;;31.38;17.25;;;;;;;;;;4991149;28;20031;-65
2021/10/28 04:32:48;;;;;;;34.10;16.87;;;;;;;;;;4991072;28;20034;-65
2021/10/28 04:35:14;;;;;;;32.35;18.27;;;;;;;;;;4993020;28;20034;-65
2021/10/28 04:37:40;;;;;;;35.47;17.92;;;;;;;;;;4992377;28;20029;-66
2021/10/28 04:40:07;;;;;;;29.27;17.45;;;;;;;;;;4990144;28;20018;-65
2021/10/28 04:42:33;;;;;;;29.30;17.10;;;;;;;;;;4992476;28;20038;-65
2021/10/28 04:45:00;;;;;;;27.38;15.68;;;;;;;;;;4991568;28;20044;-65
2021/10/28 04:47:26;;;;;;;33.70;18.00;;;;;;;;;;5004840;28;20037;-65
2021/10/28 04:49:52;;;;;;;29.75;16.23;;;;;;;;;;4988482;28;20054;-65
2021/10/28 04:52:21;;;;;;;28.90;16.25;;;;;;;;;;4992379;28;20092;-65
2021/10/28 04:54:47;;;;;;;26.00;16.58;;;;;;;;;;4990599;28;20034;-65
2021/10/28 04:57:13;;;;;;;31.90;15.60;;;;;;;;;;4991533;28;20439;-65
2021/10/28 04:59:39;;;;;;;27.40;15.80;;;;;;;;;;4990744;28;20504;-65
2021/10/28 05:02:05;;;;;;;28.02;15.52;;;;;;;;;;4992937;28;20385;-65
2021/10/28 05:04:31;;;;;;;26.15;15.70;;;;;;;;;;4993274;28;20027;-65
2021/10/28 05:06:57;;;;;;;28.48;16.13;;;;;;;;;;4990390;28;20023;-65
2021/10/28 05:09:30;;;;;;;28.88;16.30;;;;;;;;;;4986392;28;20057;-65
2021/10/28 05:12:00;;;;;;;25.55;15.77;;;;;;;;;;4989285;28;20533;-65
2021/10/28 05:14:26;;;;;;;28.90;14.82;;;;;;;;;;4991709;28;20062;-65
2021/10/28 05:16:56;;;;;;;28.42;15.65;;;;;;;;;;4984281;28;20026;-65
2021/10/28 05:19:23;;;;;;;24.73;14.50;;;;;;;;;;4990531;28;20045;-65
2021/10/28 05:21:49;;;;;;;24.98;15.20;;;;;;;;;;4991176;28;20479;-65
2021/10/28 05:24:15;;;;;;;24.00;14.95;;;;;;;;;;4990213;28;20030;-65
2021/10/28 05:26:41;;;;;;;21.77;14.27;;;;;;;;;;4990925;28;20093;-65
2021/10/28 05:29:07;;;;;;;21.90;15.80;;;;;;;;;;4989166;28;20037;-65
2021/10/28 05:31:34;;;;;;;27.27;15.20;;;;;;;;;;4987039;28;20038;-65
2021/10/28 05:34:00;;;;;;;25.08;15.43;;;;;;;;;;4977015;28;20026;-65
2021/10/28 05:36:26;;;;;;;25.02;15.13;;;;;;;;;;5006173;28;20037;-65
2021/10/28 05:38:52;;;;;;;22.65;14.63;;;;;;;;;;4981312;28;20038;-65
2021/10/28 05:41:19;;;;;;;25.17;15.52;;;;;;;;;;4988272;28;20073;-67
2021/10/28 05:43:45;;;;;;;25.65;15.43;;;;;;;;;;4988961;28;20031;-65
2021/10/28 05:46:11;;;;;;;24.52;16.15;;;;;;;;;;5008690;28;20029;-65
2021/10/28 05:48:37;;;;;;;21.98;15.23;;;;;;;;;;4989006;28;20122;-65
2021/10/28 05:51:03;;;;;;;25.67;14.70;;;;;;;;;;4992598;28;20023;-65
2021/10/28 05:53:29;;;;;;;33.33;15.63;;;;;;;;;;5007608;28;20041;-65
2021/10/28 05:55:56;;;;;;;26.45;14.80;;;;;;;;;;4991317;28;20027;-66
2021/10/28 05:58:22;;;;;;;26.00;14.95;;;;;;;;;;4997439;28;20160;-66
2021/10/28 06:00:48;;;;;;;22.92;15.02;;;;;;;;;;4992929;28;20022;-66
2021/10/28 06:03:15;;;;;;;26.48;14.95;;;;;;;;;;4991463;28;20038;-65
2021/10/28 06:05:41;;;;;;;25.80;15.57;;;;;;;;;;4985533;28;20504;-66
2021/10/28 06:08:07;;;;;;;28.23;15.35;;;;;;;;;;4988980;28;20023;-66
2021/10/28 06:13:06;;;;;;;27.08;15.43;;;;;;;;;;5134665;22;20053;-66
2021/10/28 06:15:35;;;;;;;32.63;16.52;;;;;;;;;;4991264;28;20030;-65
2021/10/28 06:20:45;;;;;;;28.20;15.15;;;;;;;;;;4993105;28;20030;-65
2021/10/28 06:23:12;;;;;;;28.45;16.80;;;;;;;;;;4991594;28;20544;-65
2021/10/28 06:25:38;;;;;;;26.10;14.10;;;;;;;;;;5006380;28;20026;-66
2021/10/28 06:28:05;;;;;;;28.52;17.40;;;;;;;;;;4987955;28;20539;-66
2021/10/28 06:30:31;;;;;;;31.98;16.05;;;;;;;;;;4990690;28;20026;-65
2021/10/28 06:33:04;;;;;;;24.45;15.23;;;;;;;;;;4991592;28;20034;-65
2021/10/28 06:35:30;;;;;;;26.40;15.27;;;;;;;;;;4991548;28;20559;-66
2021/10/28 06:37:57;;;;;;;27.13;16.02;;;;;;;;;;4986910;28;20033;-66
2021/10/28 06:40:24;;;;;;;25.75;15.98;;;;;;;;;;4989939;28;20018;-66
2021/10/28 06:42:50;;;;;;;25.35;15.27;;;;;;;;;;4988480;28;20077;-65
2021/10/28 06:45:18;;;;;;;24.85;14.63;;;;;;;;;;4990537;28;20045;-66
2021/10/28 06:47:44;;;;;;;24.10;14.25;;;;;;;;;;4991555;28;20493;-67
2021/10/28 06:50:12;;;;;;;25.23;15.30;;;;;;;;;;4993245;28;20022;-65
2021/10/28 06:55:24;;;;;;;24.02;14.77;;;;;;;;;;4990706;28;20026;-66
2021/10/28 07:03:19;;;;;;;26.45;14.45;;;;;;;;;;4991249;28;20029;-65
2021/10/28 07:05:45;;;;;;;23.85;14.10;;;;;;;;;;5003635;28;20023;-65
2021/10/28 07:08:11;;;;;;;25.45;14.90;;;;;;;;;;4986970;28;20398;-66
2021/10/28 07:10:37;;;;;;;22.13;13.40;;;;;;;;;;4990974;28;20051;-66
2021/10/28 07:13:08;;;;;;;26.38;14.55;;;;;;;;;;4982640;28;20089;-66
2021/10/28 07:15:44;;;;;;;23.77;14.95;;;;;;;;;;4990670;28;20026;-66
2021/10/28 07:20:55;;;;;;;28.27;14.80;;;;;;;;;;4990764;28;20046;-65
2021/10/28 07:26:32;;;;;;;27.40;14.90;;;;;;;;;;4983182;28;20065;-66
2021/10/28 07:59:50;;;;;;;24.73;15.23;;;;;;;;;;4968368;28;20498;-65
2021/10/28 08:18:00;;;;;;;25.75;14.23;;;;;;;;;;4988778;28;20035;-66
2021/10/28 08:23:39;;;;;;;24.65;14.27;;;;;;;;;;4989672;28;20389;-66
2021/10/28 08:31:09;;;;;;;22.48;14.38;;;;;;;;;;4989350;28;20038;-66
2021/10/28 08:33:35;;;;;;;23.42;15.07;;;;;;;;;;5014284;28;20416;-66
2021/10/28 08:36:12;;;;;;;21.20;14.25;;;;;;;;;;4994879;28;20180;-66
2021/10/28 08:38:39;;;;;;;22.25;15.15;;;;;;;;;;4990579;28;20529;-66
2021/10/28 08:41:11;;;;;;;22.42;15.15;;;;;;;;;;4994814;28;20105;-66
2021/10/28 08:43:41;;;;;;;25.85;15.73;;;;;;;;;;4994138;28;20080;-65
2021/10/28 08:46:08;;;;;;;19.98;14.77;;;;;;;;;;4995888;28;20116;-66
2021/10/28 08:48:37;;;;;;;19.65;14.45;;;;;;;;;;4990796;28;20029;-66
2021/10/28 09:24:12;;;;;;;19.60;15.00;;;;;;;;;;4993527;28;20583;-66
2021/10/28 09:26:46;;;;;;;21.92;14.43;;;;;;;;;;4992048;28;20037;-66
2021/10/28 09:34:32;;;;;;;21.75;13.98;;;;;;;;;;4986227;28;20030;-67
2021/10/28 09:45:38;;;;;;;23.17;14.35;;;;;;;;;;4997093;28;20253;-66
2021/10/28 09:48:24;;;;;;;17.08;13.05;;;;;;;;;;4989366;28;20026;-66
2021/10/28 09:50:51;;;;;;;16.92;13.43;;;;;;;;;;4989198;28;20035;-66
2021/10/28 09:58:42;;;;;;;21.38;14.05;;;;;;;;;;4988654;28;20038;-66
2021/10/28 10:01:11;;;;;;;19.25;13.88;;;;;;;;;;4981505;28;20121;-66
2021/10/28 10:03:40;;;;;;;18.15;13.68;;;;;;;;;;4989812;28;20030;-66
2021/10/28 10:06:13;;;;;;;19.30;13.63;;;;;;;;;;4984553;28;20416;-66
2021/10/28 10:08:39;;;;;;;18.15;14.93;;;;;;;;;;4987885;28;20524;-66
2021/10/28 10:11:05;;;;;;;19.38;14.20;;;;;;;;;;4991447;28;20041;-67
2021/10/28 10:13:32;;;;;;;17.10;13.05;;;;;;;;;;4991289;28;20100;-66
2021/10/28 10:16:00;;;;;;;17.67;12.60;;;;;;;;;;4990941;28;20579;-66
2021/10/28 10:18:26;;;;;;;18.42;12.85;;;;;;;;;;4989340;28;20042;-67
2021/10/28 10:24:09;;;;;;;17.40;12.50;;;;;;;;;;4956192;28;20035;-66
2021/10/28 10:27:16;;;;;;;19.40;15.35;;;;;;;;;;4985011;28;20026;-66
2021/10/28 12:46:23;;;;;;;17.30;10.73;;;;;;;;;;4990570;28;20109;-66
2021/10/28 12:51:38;;;;;;;16.75;10.07;;;;;;;;;;4993050;28;20030;-66
2021/10/28 14:35:01;;;;;;;11.35;7.40;;;;;;;;;;4991254;28;20141;-66
2021/10/28 14:39:25;;;;;;;11.95;8.38;;;;;;;;;;4988060;28;20045;-66
2021/10/28 15:28:50;;;;;;;11.63;7.20;;;;;;;;;;4983907;28;20109;-66
2021/10/28 15:36:23;;;;;;;12.60;6.78;;;;;;;;;;4993754;28;20042;-66
2021/10/28 15:54:34;;;;;;;13.30;6.13;;;;;;;;;;4991088;28;20030;-67
2021/10/28 15:57:09;;;;;;;12.27;6.50;;;;;;;;;;4984286;28;20038;-66
2021/10/28 16:21:54;;;;;;;12.63;6.97;;;;;;;;;;4993603;28;20081;-67
2021/10/28 16:24:21;;;;;;;13.13;7.13;;;;;;;;;;4994044;28;20065;-67
2021/10/28 16:26:48;;;;;;;14.35;7.80;;;;;;;;;;4992551;28;20481;-66
2021/10/28 16:29:14;;;;;;;15.25;7.88;;;;;;;;;;4990627;28;20041;-67
2021/10/28 16:31:44;;;;;;;13.82;8.23;;;;;;;;;;4999631;28;20034;-67
2021/10/28 16:34:10;;;;;;;12.32;8.35;;;;;;;;;;4993162;28;20033;-67
2021/10/28 16:36:36;;;;;;;14.70;7.88;;;;;;;;;;4990121;28;20030;-66
2021/10/28 16:39:07;;;;;;;14.75;7.78;;;;;;;;;;4984573;28;20044;-67
2021/10/28 16:41:34;;;;;;;12.67;8.40;;;;;;;;;;4991539;28;20393;-67
2021/10/28 16:44:00;;;;;;;12.13;8.52;;;;;;;;;;4989867;28;20165;-67
2021/10/28 16:46:26;;;;;;;13.65;8.65;;;;;;;;;;4991968;28;20026;-66
2021/10/28 16:48:53;;;;;;;16.73;8.88;;;;;;;;;;4985783;28;20508;-67
2021/10/28 16:51:20;;;;;;;16.00;9.63;;;;;;;;;;4990608;28;20489;-67
2021/10/28 16:53:46;;;;;;;12.80;9.10;;;;;;;;;;4995001;28;20054;-66
2021/10/28 16:56:15;;;;;;;13.63;8.65;;;;;;;;;;4988292;28;20328;-66
2021/10/28 16:58:41;;;;;;;14.70;9.48;;;;;;;;;;4992797;28;20118;-67
2021/10/28 17:01:11;;;;;;;15.45;8.35;;;;;;;;;;4991537;28;20026;-67
2021/10/28 17:03:37;;;;;;;12.43;8.90;;;;;;;;;;4997063;28;20101;-66
2021/10/28 17:06:04;;;;;;;13.27;8.63;;;;;;;;;;4986528;28;20080;-67
2021/10/28 17:08:30;;;;;;;15.07;8.65;;;;;;;;;;4982923;28;20027;-67
2021/10/28 17:11:00;;;;;;;13.43;8.93;;;;;;;;;;4991856;28;20263;-67
2021/10/28 17:13:26;;;;;;;14.73;9.65;;;;;;;;;;4987180;28;20101;-67
2021/10/28 17:15:52;;;;;;;13.13;9.25;;;;;;;;;;4991551;28;20041;-67
2021/10/28 17:18:19;;;;;;;18.33;9.93;;;;;;;;;;4983797;28;20033;-66
2021/10/28 17:20:45;;;;;;;15.18;9.68;;;;;;;;;;4992038;28;20022;-67
2021/10/28 17:23:15;;;;;;;16.02;9.95;;;;;;;;;;4991824;28;20030;-66
2021/10/28 17:25:45;;;;;;;14.88;9.13;;;;;;;;;;4990971;28;20050;-66
2021/10/28 17:28:11;;;;;;;14.45;9.23;;;;;;;;;;4989248;28;20550;-67
2021/10/28 17:30:37;;;;;;;16.20;9.25;;;;;;;;;;4991654;28;20034;-66
2021/10/28 17:33:04;;;;;;;12.60;8.80;;;;;;;;;;4991895;28;20026;-66
2021/10/28 17:35:30;;;;;;;12.27;8.88;;;;;;;;;;4992408;28;20045;-67
2021/10/28 17:37:56;;;;;;;15.10;9.70;;;;;;;;;;4989734;28;20492;-66
2021/10/28 17:40:24;;;;;;;18.88;9.75;;;;;;;;;;4991533;28;20023;-66
2021/10/28 17:42:53;;;;;;;18.92;9.63;;;;;;;;;;4993470;28;20028;-66
2021/10/28 17:45:20;;;;;;;13.68;10.43;;;;;;;;;;4990536;28;20037;-67
2021/10/28 17:47:47;;;;;;;16.98;8.88;;;;;;;;;;4991091;28;20029;-66
2021/10/28 17:50:13;;;;;;;13.52;9.13;;;;;;;;;;5005766;28;20452;-67
2021/10/28 17:52:41;;;;;;;16.35;9.38;;;;;;;;;;4988800;28;20374;-66
2021/10/28 17:55:09;;;;;;;16.90;9.70;;;;;;;;;;4995359;28;20022;-66
2021/10/28 17:57:37;;;;;;;14.32;9.98;;;;;;;;;;4994593;28;20037;-66
2021/10/28 18:00:04;;;;;;;16.70;10.05;;;;;;;;;;5001748;28;20026;-66
2021/10/28 18:02:30;;;;;;;18.30;9.90;;;;;;;;;;5005484;28;20092;-66
2021/10/28 18:04:56;;;;;;;18.42;10.48;;;;;;;;;;4991462;28;20034;-66
2021/10/28 18:07:22;;;;;;;19.83;10.10;;;;;;;;;;4997501;28;20041;-66
2021/10/28 18:09:48;;;;;;;14.45;10.32;;;;;;;;;;4988536;28;20030;-67
2021/10/28 18:12:14;;;;;;;17.15;10.52;;;;;;;;;;4990625;28;20054;-66
2021/10/28 18:14:41;;;;;;;20.23;10.93;;;;;;;;;;4991233;28;20058;-66
2021/10/28 18:17:08;;;;;;;19.30;10.00;;;;;;;;;;4987736;28;20101;-67
2021/10/28 18:19:34;;;;;;;19.02;9.98;;;;;;;;;;4992450;28;20052;-66
2021/10/28 18:22:00;;;;;;;14.18;10.15;;;;;;;;;;4992551;28;20394;-67
2021/10/28 18:24:27;;;;;;;15.15;10.50;;;;;;;;;;4990394;28;20019;-66
2021/10/28 18:26:54;;;;;;;19.45;11.18;;;;;;;;;;4990355;28;20081;-66
2021/10/28 18:29:21;;;;;;;15.75;10.13;;;;;;;;;;4988846;28;20122;-67
2021/10/28 18:31:47;;;;;;;16.45;10.60;;;;;;;;;;4989769;28;20026;-66
2021/10/28 18:34:15;;;;;;;20.98;11.07;;;;;;;;;;4981846;28;20041;-66
2021/10/28 18:36:41;;;;;;;17.30;10.60;;;;;;;;;;5005739;28;20053;-67
2021/10/28 18:39:09;;;;;;;17.00;10.27;;;;;;;;;;4988901;28;20284;-66
2021/10/28 18:41:35;;;;;;;16.95;10.63;;;;;;;;;;4990343;28;20101;-66
2021/10/28 18:44:01;;;;;;;14.60;10.05;;;;;;;;;;4989511;28;20026;-66
2021/10/28 18:46:27;;;;;;;19.58;10.95;;;;;;;;;;4995840;28;20029;-66
2021/10/28 18:48:57;;;;;;;18.40;11.73;;;;;;;;;;4987654;28;20049;-66
2021/10/28 18:51:23;;;;;;;18.20;13.25;;;;;;;;;;4990599;28;20624;-66
2021/10/28 18:53:50;;;;;;;21.70;14.27;;;;;;;;;;4989664;28;20073;-66
2021/10/28 18:56:17;;;;;;;18.95;12.90;;;;;;;;;;4989729;28;20437;-66
2021/10/28 18:58:44;;;;;;;21.95;13.27;;;;;;;;;;4988120;28;20496;-67
2021/10/28 19:01:11;;;;;;;19.52;12.43;;;;;;;;;;4990333;28;20500;-66
2021/10/28 19:03:40;;;;;;;21.90;12.48;;;;;;;;;;4990674;28;20093;-66
2021/10/28 19:06:06;;;;;;;21.85;12.40;;;;;;;;;;5002801;28;20489;-66
2021/10/28 19:08:33;;;;;;;22.65;13.25;;;;;;;;;;5000733;28;20023;-66
2021/10/28 19:11:00;;;;;;;20.60;12.65;;;;;;;;;;4990625;28;20053;-67
2021/10/28 19:13:26;;;;;;;23.20;12.57;;;;;;;;;;4988155;28;20042;-67
2021/10/28 19:15:53;;;;;;;16.83;12.02;;;;;;;;;;4989554;28;20038;-67
2021/10/28 19:18:19;;;;;;;18.70;11.50;;;;;;;;;;4978793;28;20037;-66
2021/10/28 19:20:46;;;;;;;19.50;11.27;;;;;;;;;;4990329;28;20397;-67
2021/10/28 19:23:13;;;;;;;22.15;11.07;;;;;;;;;;4974137;28;20023;-67
2021/10/28 19:25:41;;;;;;;19.05;11.18;;;;;;;;;;4984903;28;20252;-66
2021/10/28 19:28:08;;;;;;;19.02;11.68;;;;;;;;;;4985499;28;20022;-66
2021/10/28 19:33:13;;;;;;;18.98;12.00;;;;;;;;;;4990007;28;20030;-67
2021/10/28 19:35:42;;;;;;;21.52;12.02;;;;;;;;;;4984307;28;20023;-67
2021/10/28 19:46:26;;;;;;;19.52;12.07;;;;;;;;;;4988152;28;20077;-66
2021/10/28 19:48:53;;;;;;;17.52;10.73;;;;;;;;;;4986934;28;20034;-66
2021/10/28 19:51:19;;;;;;;18.08;10.75;;;;;;;;;;4989997;28;20026;-66
2021/10/28 19:53:48;;;;;;;18.83;10.48;;;;;;;;;;4989275;28;20121;-66
2021/10/28 19:56:15;;;;;;;21.13;10.88;;;;;;;;;;4988335;28;20037;-66
2021/10/28 19:58:46;;;;;;;18.92;10.68;;;;;;;;;;4985139;28;20037;-67
2021/10/28 20:06:27;;;;;;;18.98;10.77;;;;;;;;;;4989419;28;20038;-66
2021/10/28 20:14:51;;;;;;;20.52;10.63;;;;;;;;;;4990272;28;20050;-67
2021/10/28 20:22:30;;;;;;;17.13;11.35;;;;;;;;;;4993341;28;20037;-66
2021/10/28 20:24:56;;;;;;;17.65;10.63;;;;;;;;;;4992546;28;20034;-67
2021/10/28 20:27:22;;;;;;;20.00;11.55;;;;;;;;;;4989109;28;20080;-66
2021/10/28 20:29:48;;;;;;;18.08;11.77;;;;;;;;;;4989372;28;20030;-67
2021/10/28 20:32:14;;;;;;;20.35;11.55;;;;;;;;;;4990690;28;20030;-67
2021/10/28 20:37:15;;;;;;;19.73;11.20;;;;;;;;;;4991415;28;20026;-66
2021/10/28 20:39:43;;;;;;;20.23;11.75;;;;;;;;;;4987133;28;20276;-67
2021/10/28 20:42:10;;;;;;;16.58;11.25;;;;;;;;;;4991710;28;20073;-67
2021/10/28 20:44:36;;;;;;;21.02;14.05;;;;;;;;;;4994106;28;20440;-67
2021/10/28 20:47:03;;;;;;;20.40;11.73;;;;;;;;;;5010966;28;20138;-67
2021/10/28 20:49:29;;;;;;;23.85;12.68;;;;;;;;;;4989489;28;20037;-66
2021/10/28 20:51:56;;;;;;;23.63;13.05;;;;;;;;;;4993255;28;20035;-67
2021/10/28 20:54:22;;;;;;;22.02;13.07;;;;;;;;;;4995929;28;20030;-66
2021/10/28 20:56:53;;;;;;;23.33;13.63;;;;;;;;;;5005416;28;20026;-67
2021/10/28 20:59:19;;;;;;;25.45;13.25;;;;;;;;;;4992810;28;20026;-66
2021/10/28 21:01:46;;;;;;;18.45;13.38;;;;;;;;;;4991762;28;20029;-67
2021/10/28 21:04:13;;;;;;;22.23;12.90;;;;;;;;;;4992102;28;20405;-67
2021/10/28 21:06:40;;;;;;;18.67;12.57;;;;;;;;;;4990713;28;20154;-67
2021/10/28 21:09:07;;;;;;;23.38;13.93;;;;;;;;;;4988619;28;20386;-66
2021/10/28 21:11:37;;;;;;;21.30;13.57;;;;;;;;;;4990970;28;20041;-66
2021/10/28 21:14:07;;;;;;;23.05;13.32;;;;;;;;;;4991554;28;20057;-66
2021/10/28 21:16:33;;;;;;;20.23;13.05;;;;;;;;;;4995036;28;20045;-66
2021/10/28 21:19:00;;;;;;;24.23;13.48;;;;;;;;;;4986556;28;20026;-66
2021/10/28 21:21:26;;;;;;;21.02;12.88;;;;;;;;;;4991029;28;20485;-66
2021/10/28 21:23:53;;;;;;;19.70;12.98;;;;;;;;;;4991218;28;20057;-66
2021/10/28 21:26:20;;;;;;;23.40;13.00;;;;;;;;;;4992600;28;20035;-67
2021/10/28 21:28:46;;;;;;;20.17;12.90;;;;;;;;;;4992534;28;20072;-66
2021/10/28 21:31:12;;;;;;;18.55;12.93;;;;;;;;;;4993732;28;20037;-66
2021/10/28 21:33:39;;;;;;;19.65;11.98;;;;;;;;;;4993480;28;20030;-66
2021/10/28 21:36:06;;;;;;;17.88;12.55;;;;;;;;;;4990629;28;20022;-67
2021/10/28 21:38:33;;;;;;;22.15;11.20;;;;;;;;;;4988742;28;20088;-67
2021/10/28 21:40:59;;;;;;;18.40;11.48;;;;;;;;;;4988820;28;20022;-67
2021/10/28 21:43:25;;;;;;;21.73;12.27;;;;;;;;;;5006354;28;20018;-66
2021/10/28 21:45:51;;;;;;;18.23;11.25;;;;;;;;;;4990736;28;20035;-67
2021/10/28 21:48:18;;;;;;;17.95;10.85;;;;;;;;;;4988555;28;20042;-66
2021/10/28 21:50:48;;;;;;;17.88;11.30;;;;;;;;;;4990686;28;20062;-66
2021/10/28 21:53:15;;;;;;;16.98;11.25;;;;;;;;;;5004317;28;20033;-67
2021/10/28 21:58:38;;;;;;;18.88;10.90;;;;;;;;;;4988482;28;20023;-66
2021/10/28 22:25:24;;;;;;;21.90;12.15;;;;;;;;;;4986593;28;20041;-66
2021/10/28 22:27:50;;;;;;;18.55;10.70;;;;;;;;;;4985412;28;20458;-66
2021/10/28 22:30:16;;;;;;;16.95;10.40;;;;;;;;;;4989121;28;20052;-66
2021/10/28 22:32:43;;;;;;;17.13;11.00;;;;;;;;;;4988650;28;20046;-66
2021/10/28 22:35:12;;;;;;;14.70;9.98;;;;;;;;;;4996796;28;20052;-66
2021/10/28 22:42:39;;;;;;;17.67;9.45;;;;;;;;;;4987992;28;20100;-66
2021/10/28 22:45:06;;;;;;;12.75;9.55;;;;;;;;;;4990941;28;20022;-66
2021/10/28 22:47:32;;;;;;;13.57;9.13;;;;;;;;;;4991527;28;20492;-67
2021/10/28 22:50:00;;;;;;;17.48;10.00;;;;;;;;;;4987661;28;20444;-67
2021/10/28 22:52:31;;;;;;;18.05;10.38;;;;;;;;;;4985767;28;20484;-66
2021/10/28 22:55:00;;;;;;;18.43;9.60;;;;;;;;;;4987310;28;20057;-66
2021/10/28 22:57:55;;;;;;;15.95;9.90;;;;;;;;;;4987736;28;20121;-67
2021/10/28 23:00:21;;;;;;;17.35;10.20;;;;;;;;;;4936716;28;20046;-66
2021/10/28 23:02:56;;;;;;;16.00;9.57;;;;;;;;;;4995670;28;20054;-66
2021/10/28 23:21:07;;;;;;;14.90;8.95;;;;;;;;;;4990701;28;20038;-67
2021/10/28 23:23:33;;;;;;;16.98;9.98;;;;;;;;;;4990467;28;20068;-67
2021/10/28 23:25:59;;;;;;;16.67;9.70;;;;;;;;;;4990322;28;20035;-66
2021/10/28 23:28:25;;;;;;;15.48;10.20;;;;;;;;;;4988165;28;20026;-66
2021/10/28 23:30:51;;;;;;;13.77;9.07;;;;;;;;;;4989680;28;20117;-66
2021/10/28 23:33:18;;;;;;;16.50;9.85;;;;;;;;;;5004589;28;20622;-66
2021/10/28 23:35:44;;;;;;;13.77;9.27;;;;;;;;;;4993824;28;20026;-66
2021/10/28 23:38:10;;;;;;;14.40;8.98;;;;;;;;;;4989044;28;20042;-66
2021/10/28 23:40:38;;;;;;;14.60;8.88;;;;;;;;;;4990424;28;20026;-66
2021/10/28 23:43:04;;;;;;;22.02;10.35;;;;;;;;;;4989765;28;20030;-66
2021/10/28 23:45:31;;;;;;;13.57;9.55;;;;;;;;;;4997765;28;20030;-66
2021/10/28 23:47:57;;;;;;;16.58;9.85;;;;;;;;;;4989948;28;20093;-66
2021/10/28 23:50:24;;;;;;;14.10;9.63;;;;;;;;;;4989635;28;20034;-67
2021/10/28 23:52:50;;;;;;;15.23;9.68;;;;;;;;;;4998206;28;20054;-66
2021/10/28 23:55:16;;;;;;;13.63;9.20;;;;;;;;;;5003283;28;20030;-66
2021/10/28 23:57:42;;;;;;;14.90;9.40;;;;;;;;;;4996308;28;20034;-66
